createdAt,value
2017-11-13T10:13:56.200Z,17.49
2017-11-13T10:14:58.621Z,17.71
2017-11-13T10:16:03.404Z,17.89
2017-11-13T10:17:06.991Z,18.09
2017-11-13T10:18:09.376Z,18.20
2017-11-13T10:19:12.994Z,18.23
2017-11-13T10:20:15.334Z,18.50
2017-11-13T10:21:19.434Z,18.74
2017-11-13T10:22:23.471Z,18.87
2017-11-13T10:23:27.093Z,18.91
2017-11-13T10:24:29.298Z,19.10
2017-11-13T10:25:33.027Z,19.21
2017-11-13T10:26:37.302Z,19.43
2017-11-13T10:27:41.222Z,19.61
2017-11-13T10:28:46.937Z,19.65
2017-11-13T10:29:51.108Z,19.68
2017-11-13T10:30:57.495Z,19.76
2017-11-13T10:32:02.795Z,19.83
2017-11-13T10:33:07.280Z,19.89
2017-11-13T10:34:11.391Z,19.95
2017-11-13T10:35:15.087Z,19.80
2017-11-13T10:36:17.753Z,19.55
2017-11-13T10:37:19.574Z,19.09
2017-11-13T10:38:21.180Z,19.02
2017-11-13T10:39:25.690Z,19.15
2017-11-13T10:40:30.312Z,19.10
2017-11-13T10:42:13.916Z,19.02
2017-11-13T10:43:17.104Z,18.87
2017-11-13T10:44:19.586Z,18.74
2017-11-13T10:45:22.947Z,18.39
2017-11-13T10:46:26.733Z,18.25
2017-11-13T10:47:30.210Z,18.01
2017-11-13T10:48:34.070Z,17.62
2017-11-13T10:49:38.126Z,17.39
2017-11-13T10:50:41.646Z,17.07
2017-11-13T10:51:45.370Z,16.85
2017-11-13T10:52:59.029Z,16.62
2017-11-13T10:54:01.169Z,16.34
2017-11-13T10:55:06.633Z,16.18
2017-11-13T12:34:57.186Z,10.11
2017-11-13T12:36:40.384Z,10.01
2017-11-13T12:37:44.045Z,9.92
2017-11-13T12:38:47.053Z,9.92
2017-11-13T12:39:51.687Z,9.80
2017-11-13T12:40:53.030Z,9.80
2017-11-13T12:41:57.498Z,9.81
2017-11-13T12:43:01.893Z,9.78
2017-11-13T12:44:06.007Z,9.71
2017-11-13T12:45:09.774Z,9.75
2017-11-13T12:46:13.664Z,9.67
2017-11-13T12:47:17.997Z,9.63
2017-11-13T12:48:20.728Z,9.59
2017-11-13T12:49:22.866Z,9.44
2017-11-13T12:50:25.246Z,9.31
2017-11-13T12:51:29.333Z,9.20
2017-11-13T12:52:33.858Z,9.22
2017-11-13T12:53:49.176Z,9.22
2017-11-13T12:54:53.764Z,9.24
2017-11-13T12:55:57.510Z,9.26
